sensor_id;sensor_type;location;lat;lon;timestamp;P1;durP1;ratioP1;P2;durP2;ratioP2
29550;SDS011;16488;52.396;10.696;2023-02-18T00:01:57;18.80;;;2.28;;
29550;SDS011;16488;52.396;10.696;2023-02-18T00:04:23;12.95;;;2.08;;
29550;SDS011;16488;52.396;10.696;2023-02-18T00:09:15;9.10;;;2.75;;
29550;SDS011;16488;52.396;10.696;2023-02-18T00:11:41;11.93;;;2.25;;
29550;SDS011;16488;52.396;10.696;2023-02-18T00:14:10;12.32;;;2.55;;
29550;SDS011;16488;52.396;10.696;2023-02-18T00:16:37;16.17;;;2.78;;
29550;SDS011;16488;52.396;10.696;2023-02-18T00:19:04;11.93;;;2.15;;
29550;SDS011;16488;52.396;10.696;2023-02-18T00:21:34;15.88;;;2.92;;
29550;SDS011;16488;52.396;10.696;2023-02-18T00:24:00;13.32;;;2.33;;
29550;SDS011;16488;52.396;10.696;2023-02-18T00:26:26;19.45;;;2.15;;
29550;SDS011;16488;52.396;10.696;2023-02-18T00:28:52;11.63;;;2.22;;
29550;SDS011;16488;52.396;10.696;2023-02-18T00:31:29;16.95;;;2.25;;
29550;SDS011;16488;52.396;10.696;2023-02-18T00:33:56;9.10;;;1.63;;
29550;SDS011;16488;52.396;10.696;2023-02-18T00:36:23;11.70;;;2.65;;
29550;SDS011;16488;52.396;10.696;2023-02-18T00:41:15;14.70;;;2.60;;
29550;SDS011;16488;52.396;10.696;2023-02-18T00:43:41;8.90;;;2.67;;
29550;SDS011;16488;52.396;10.696;2023-02-18T00:46:07;15.98;;;2.60;;
29550;SDS011;16488;52.396;10.696;2023-02-18T00:48:34;15.70;;;2.22;;
29550;SDS011;16488;52.396;10.696;2023-02-18T00:51:00;12.27;;;2.75;;
29550;SDS011;16488;52.396;10.696;2023-02-18T00:53:27;11.57;;;2.15;;
29550;SDS011;16488;52.396;10.696;2023-02-18T00:55:53;9.00;;;2.38;;
29550;SDS011;16488;52.396;10.696;2023-02-18T00:58:19;15.10;;;2.28;;
29550;SDS011;16488;52.396;10.696;2023-02-18T01:00:45;11.88;;;2.38;;
29550;SDS011;16488;52.396;10.696;2023-02-18T01:03:11;5.90;;;2.08;;
29550;SDS011;16488;52.396;10.696;2023-02-18T01:05:37;11.13;;;2.28;;
29550;SDS011;16488;52.396;10.696;2023-02-18T01:08:03;16.13;;;2.10;;
29550;SDS011;16488;52.396;10.696;2023-02-18T01:10:30;13.32;;;2.08;;
29550;SDS011;16488;52.396;10.696;2023-02-18T01:12:56;11.15;;;1.90;;
29550;SDS011;16488;52.396;10.696;2023-02-18T01:15:22;12.50;;;1.98;;
29550;SDS011;16488;52.396;10.696;2023-02-18T01:17:48;14.95;;;2.85;;
29550;SDS011;16488;52.396;10.696;2023-02-18T01:20:16;9.60;;;2.22;;
29550;SDS011;16488;52.396;10.696;2023-02-18T01:22:42;10.13;;;2.42;;
29550;SDS011;16488;52.396;10.696;2023-02-18T01:25:08;17.98;;;3.90;;
29550;SDS011;16488;52.396;10.696;2023-02-18T01:27:35;14.77;;;2.60;;
29550;SDS011;16488;52.396;10.696;2023-02-18T01:30:02;10.70;;;2.60;;
29550;SDS011;16488;52.396;10.696;2023-02-18T01:32:28;12.73;;;3.50;;
29550;SDS011;16488;52.396;10.696;2023-02-18T01:34:54;9.75;;;2.10;;
29550;SDS011;16488;52.396;10.696;2023-02-18T01:37:20;12.73;;;2.83;;
29550;SDS011;16488;52.396;10.696;2023-02-18T01:39:46;15.85;;;2.80;;
29550;SDS011;16488;52.396;10.696;2023-02-18T01:42:23;8.85;;;2.17;;
29550;SDS011;16488;52.396;10.696;2023-02-18T01:44:49;15.38;;;2.70;;
29550;SDS011;16488;52.396;10.696;2023-02-18T01:47:15;14.20;;;3.10;;
29550;SDS011;16488;52.396;10.696;2023-02-18T01:49:42;13.43;;;3.15;;
29550;SDS011;16488;52.396;10.696;2023-02-18T01:52:20;11.27;;;2.20;;
29550;SDS011;16488;52.396;10.696;2023-02-18T01:54:48;20.17;;;2.58;;
29550;SDS011;16488;52.396;10.696;2023-02-18T01:57:32;11.90;;;2.40;;
29550;SDS011;16488;52.396;10.696;2023-02-18T02:00:03;11.32;;;2.20;;
29550;SDS011;16488;52.396;10.696;2023-02-18T02:02:29;14.18;;;3.80;;
29550;SDS011;16488;52.396;10.696;2023-02-18T02:04:56;19.25;;;4.80;;
29550;SDS011;16488;52.396;10.696;2023-02-18T02:07:23;19.58;;;3.40;;
29550;SDS011;16488;52.396;10.696;2023-02-18T02:09:50;14.23;;;2.15;;
29550;SDS011;16488;52.396;10.696;2023-02-18T02:30:17;15.77;;;2.55;;
29550;SDS011;16488;52.396;10.696;2023-02-18T02:40:37;12.30;;;1.50;;
29550;SDS011;16488;52.396;10.696;2023-02-18T02:48:47;9.18;;;2.78;;
29550;SDS011;16488;52.396;10.696;2023-02-18T02:51:01;8.18;;;2.50;;
29550;SDS011;16488;52.396;10.696;2023-02-18T02:53:29;12.57;;;1.83;;
29550;SDS011;16488;52.396;10.696;2023-02-18T02:55:56;12.05;;;2.38;;
29550;SDS011;16488;52.396;10.696;2023-02-18T02:58:22;19.63;;;1.92;;
29550;SDS011;16488;52.396;10.696;2023-02-18T03:11:04;8.65;;;2.08;;
29550;SDS011;16488;52.396;10.696;2023-02-18T03:13:33;19.00;;;2.63;;
29550;SDS011;16488;52.396;10.696;2023-02-18T03:18:42;26.85;;;4.25;;
29550;SDS011;16488;52.396;10.696;2023-02-18T03:21:12;11.80;;;2.30;;
29550;SDS011;16488;52.396;10.696;2023-02-18T03:23:56;17.25;;;2.42;;
29550;SDS011;16488;52.396;10.696;2023-02-18T03:26:23;7.50;;;1.90;;
29550;SDS011;16488;52.396;10.696;2023-02-18T03:28:50;9.20;;;2.15;;
29550;SDS011;16488;52.396;10.696;2023-02-18T03:31:18;10.88;;;1.90;;
29550;SDS011;16488;52.396;10.696;2023-02-18T03:33:47;7.05;;;1.80;;
29550;SDS011;16488;52.396;10.696;2023-02-18T03:36:14;11.57;;;2.30;;
29550;SDS011;16488;52.396;10.696;2023-02-18T03:41:09;8.80;;;1.50;;
29550;SDS011;16488;52.396;10.696;2023-02-18T03:43:35;8.85;;;2.15;;
29550;SDS011;16488;52.396;10.696;2023-02-18T03:46:01;19.00;;;2.78;;
29550;SDS011;16488;52.396;10.696;2023-02-18T03:48:28;13.52;;;1.92;;
29550;SDS011;16488;52.396;10.696;2023-02-18T03:50:54;15.40;;;2.25;;
29550;SDS011;16488;52.396;10.696;2023-02-18T03:53:20;13.35;;;2.22;;
29550;SDS011;16488;52.396;10.696;2023-02-18T03:55:46;14.07;;;2.50;;
29550;SDS011;16488;52.396;10.696;2023-02-18T03:58:12;14.27;;;2.35;;
29550;SDS011;16488;52.396;10.696;2023-02-18T04:00:38;11.38;;;1.90;;
29550;SDS011;16488;52.396;10.696;2023-02-18T04:03:05;11.25;;;2.17;;
29550;SDS011;16488;52.396;10.696;2023-02-18T04:05:31;10.35;;;2.08;;
29550;SDS011;16488;52.396;10.696;2023-02-18T04:07:57;13.13;;;2.53;;
29550;SDS011;16488;52.396;10.696;2023-02-18T04:10:23;23.75;;;3.00;;
29550;SDS011;16488;52.396;10.696;2023-02-18T04:12:49;10.88;;;2.63;;
29550;SDS011;16488;52.396;10.696;2023-02-18T04:15:15;10.07;;;2.17;;
29550;SDS011;16488;52.396;10.696;2023-02-18T04:17:41;7.68;;;2.40;;
29550;SDS011;16488;52.396;10.696;2023-02-18T04:20:07;14.15;;;2.17;;
29550;SDS011;16488;52.396;10.696;2023-02-18T04:22:33;11.38;;;2.30;;
29550;SDS011;16488;52.396;10.696;2023-02-18T04:24:59;13.68;;;1.45;;
29550;SDS011;16488;52.396;10.696;2023-02-18T04:27:25;16.52;;;2.53;;
29550;SDS011;16488;52.396;10.696;2023-02-18T04:29:51;12.02;;;2.75;;
29550;SDS011;16488;52.396;10.696;2023-02-18T04:32:17;13.05;;;2.25;;
29550;SDS011;16488;52.396;10.696;2023-02-18T04:34:43;12.95;;;2.28;;
29550;SDS011;16488;52.396;10.696;2023-02-18T04:37:09;9.57;;;2.45;;
29550;SDS011;16488;52.396;10.696;2023-02-18T04:39:35;12.35;;;1.88;;
29550;SDS011;16488;52.396;10.696;2023-02-18T04:42:01;19.77;;;3.53;;
29550;SDS011;16488;52.396;10.696;2023-02-18T04:44:32;9.52;;;2.60;;
29550;SDS011;16488;52.396;10.696;2023-02-18T04:46:58;7.07;;;1.30;;
29550;SDS011;16488;52.396;10.696;2023-02-18T04:49:24;8.00;;;1.63;;
29550;SDS011;16488;52.396;10.696;2023-02-18T04:51:50;10.98;;;1.80;;
29550;SDS011;16488;52.396;10.696;2023-02-18T04:54:16;13.80;;;2.67;;
29550;SDS011;16488;52.396;10.696;2023-02-18T04:56:42;9.55;;;1.65;;
29550;SDS011;16488;52.396;10.696;2023-02-18T04:59:08;7.32;;;1.92;;
29550;SDS011;16488;52.396;10.696;2023-02-18T05:01:35;10.68;;;2.05;;
29550;SDS011;16488;52.396;10.696;2023-02-18T05:04:01;13.75;;;2.55;;
29550;SDS011;16488;52.396;10.696;2023-02-18T05:06:28;15.70;;;2.28;;
29550;SDS011;16488;52.396;10.696;2023-02-18T05:08:54;10.15;;;1.92;;
29550;SDS011;16488;52.396;10.696;2023-02-18T05:11:20;5.38;;;1.50;;
29550;SDS011;16488;52.396;10.696;2023-02-18T05:13:46;16.55;;;3.05;;
29550;SDS011;16488;52.396;10.696;2023-02-18T05:16:12;17.65;;;3.67;;
29550;SDS011;16488;52.396;10.696;2023-02-18T05:18:38;15.35;;;4.00;;
29550;SDS011;16488;52.396;10.696;2023-02-18T05:21:04;9.13;;;2.63;;
29550;SDS011;16488;52.396;10.696;2023-02-18T05:23:30;16.42;;;3.20;;
29550;SDS011;16488;52.396;10.696;2023-02-18T05:25:56;18.98;;;2.80;;
29550;SDS011;16488;52.396;10.696;2023-02-18T05:28:22;14.70;;;4.18;;
29550;SDS011;16488;52.396;10.696;2023-02-18T05:30:48;10.55;;;3.55;;
29550;SDS011;16488;52.396;10.696;2023-02-18T05:33:14;18.67;;;3.83;;
29550;SDS011;16488;52.396;10.696;2023-02-18T05:35:40;16.05;;;3.92;;
29550;SDS011;16488;52.396;10.696;2023-02-18T05:38:06;17.67;;;4.38;;
29550;SDS011;16488;52.396;10.696;2023-02-18T05:40:33;16.23;;;4.57;;
29550;SDS011;16488;52.396;10.696;2023-02-18T05:42:59;27.60;;;5.20;;
29550;SDS011;16488;52.396;10.696;2023-02-18T05:45:25;17.00;;;5.78;;
29550;SDS011;16488;52.396;10.696;2023-02-18T05:47:52;21.83;;;6.50;;
29550;SDS011;16488;52.396;10.696;2023-02-18T05:50:18;18.48;;;5.32;;
29550;SDS011;16488;52.396;10.696;2023-02-18T05:52:44;16.42;;;5.07;;
29550;SDS011;16488;52.396;10.696;2023-02-18T05:55:10;20.40;;;5.90;;
29550;SDS011;16488;52.396;10.696;2023-02-18T05:57:36;19.83;;;5.97;;
29550;SDS011;16488;52.396;10.696;2023-02-18T06:00:03;24.73;;;7.20;;
29550;SDS011;16488;52.396;10.696;2023-02-18T06:02:29;22.40;;;7.32;;
29550;SDS011;16488;52.396;10.696;2023-02-18T06:04:55;22.05;;;6.70;;
29550;SDS011;16488;52.396;10.696;2023-02-18T06:07:21;24.20;;;7.10;;
29550;SDS011;16488;52.396;10.696;2023-02-18T06:09:47;31.52;;;8.00;;
29550;SDS011;16488;52.396;10.696;2023-02-18T06:12:16;37.53;;;8.10;;
29550;SDS011;16488;52.396;10.696;2023-02-18T06:14:42;32.55;;;7.90;;
29550;SDS011;16488;52.396;10.696;2023-02-18T06:17:09;36.88;;;8.60;;
29550;SDS011;16488;52.396;10.696;2023-02-18T06:19:36;28.80;;;7.78;;
29550;SDS011;16488;52.396;10.696;2023-02-18T06:22:02;38.15;;;8.00;;
29550;SDS011;16488;52.396;10.696;2023-02-18T06:26:54;30.98;;;7.88;;
29550;SDS011;16488;52.396;10.696;2023-02-18T06:29:22;30.05;;;7.10;;
29550;SDS011;16488;52.396;10.696;2023-02-18T06:31:49;28.00;;;7.38;;
29550;SDS011;16488;52.396;10.696;2023-02-18T06:34:15;28.35;;;8.32;;
29550;SDS011;16488;52.396;10.696;2023-02-18T06:36:41;38.65;;;9.20;;
29550;SDS011;16488;52.396;10.696;2023-02-18T06:39:07;32.88;;;9.55;;
29550;SDS011;16488;52.396;10.696;2023-02-18T06:41:33;41.03;;;10.00;;
29550;SDS011;16488;52.396;10.696;2023-02-18T06:43:59;33.53;;;11.82;;
29550;SDS011;16488;52.396;10.696;2023-02-18T06:46:25;44.42;;;11.40;;
29550;SDS011;16488;52.396;10.696;2023-02-18T06:48:51;35.85;;;10.57;;
29550;SDS011;16488;52.396;10.696;2023-02-18T06:51:17;39.20;;;10.77;;
29550;SDS011;16488;52.396;10.696;2023-02-18T06:53:43;35.72;;;11.60;;
29550;SDS011;16488;52.396;10.696;2023-02-18T06:56:09;41.38;;;11.70;;
29550;SDS011;16488;52.396;10.696;2023-02-18T06:58:35;43.40;;;14.60;;
29550;SDS011;16488;52.396;10.696;2023-02-18T07:01:01;37.92;;;14.35;;
29550;SDS011;16488;52.396;10.696;2023-02-18T07:03:27;37.70;;;10.93;;
29550;SDS011;16488;52.396;10.696;2023-02-18T07:05:53;41.38;;;11.98;;
29550;SDS011;16488;52.396;10.696;2023-02-18T07:08:20;33.60;;;11.93;;
29550;SDS011;16488;52.396;10.696;2023-02-18T07:10:46;33.72;;;14.43;;
29550;SDS011;16488;52.396;10.696;2023-02-18T07:13:12;40.40;;;11.82;;
29550;SDS011;16488;52.396;10.696;2023-02-18T07:18:04;31.02;;;11.35;;
29550;SDS011;16488;52.396;10.696;2023-02-18T07:22:57;47.38;;;14.13;;
29550;SDS011;16488;52.396;10.696;2023-02-18T07:25:23;38.65;;;12.35;;
29550;SDS011;16488;52.396;10.696;2023-02-18T07:27:49;36.45;;;13.90;;
29550;SDS011;16488;52.396;10.696;2023-02-18T07:32:42;33.92;;;11.27;;
29550;SDS011;16488;52.396;10.696;2023-02-18T07:35:09;27.52;;;11.23;;
29550;SDS011;16488;52.396;10.696;2023-02-18T07:37:35;32.58;;;12.57;;
29550;SDS011;16488;52.396;10.696;2023-02-18T07:40:01;32.88;;;11.93;;
29550;SDS011;16488;52.396;10.696;2023-02-18T07:42:31;30.45;;;12.25;;
29550;SDS011;16488;52.396;10.696;2023-02-18T07:44:57;42.45;;;12.48;;
29550;SDS011;16488;52.396;10.696;2023-02-18T07:49:49;30.33;;;12.38;;
29550;SDS011;16488;52.396;10.696;2023-02-18T07:52:15;32.28;;;11.95;;
29550;SDS011;16488;52.396;10.696;2023-02-18T07:54:41;40.28;;;13.07;;
29550;SDS011;16488;52.396;10.696;2023-02-18T07:59:33;37.72;;;13.15;;
29550;SDS011;16488;52.396;10.696;2023-02-18T08:01:59;34.80;;;12.68;;
29550;SDS011;16488;52.396;10.696;2023-02-18T08:04:25;39.45;;;13.25;;
29550;SDS011;16488;52.396;10.696;2023-02-18T08:06:51;28.98;;;13.15;;
29550;SDS011;16488;52.396;10.696;2023-02-18T08:09:18;36.25;;;13.45;;
29550;SDS011;16488;52.396;10.696;2023-02-18T08:11:44;37.10;;;14.50;;
29550;SDS011;16488;52.396;10.696;2023-02-18T08:14:10;41.10;;;13.32;;
29550;SDS011;16488;52.396;10.696;2023-02-18T08:16:36;30.70;;;13.27;;
29550;SDS011;16488;52.396;10.696;2023-02-18T08:19:02;33.03;;;14.27;;
29550;SDS011;16488;52.396;10.696;2023-02-18T08:21:28;32.47;;;13.73;;
29550;SDS011;16488;52.396;10.696;2023-02-18T08:26:20;32.08;;;15.05;;
29550;SDS011;16488;52.396;10.696;2023-02-18T08:28:46;32.08;;;14.77;;
29550;SDS011;16488;52.396;10.696;2023-02-18T08:31:26;33.53;;;13.82;;
29550;SDS011;16488;52.396;10.696;2023-02-18T08:33:53;29.60;;;13.75;;
29550;SDS011;16488;52.396;10.696;2023-02-18T08:36:19;33.90;;;13.63;;
29550;SDS011;16488;52.396;10.696;2023-02-18T08:38:45;34.58;;;14.15;;
29550;SDS011;16488;52.396;10.696;2023-02-18T08:41:11;37.13;;;15.10;;
29550;SDS011;16488;52.396;10.696;2023-02-18T08:43:42;38.03;;;14.95;;
29550;SDS011;16488;52.396;10.696;2023-02-18T08:48:35;37.60;;;14.75;;
29550;SDS011;16488;52.396;10.696;2023-02-18T08:51:18;35.88;;;16.08;;
29550;SDS011;16488;52.396;10.696;2023-02-18T08:53:44;40.83;;;16.75;;
29550;SDS011;16488;52.396;10.696;2023-02-18T08:56:11;42.45;;;17.42;;
29550;SDS011;16488;52.396;10.696;2023-02-18T08:58:38;38.67;;;16.95;;
29550;SDS011;16488;52.396;10.696;2023-02-18T09:03:31;43.85;;;17.42;;
29550;SDS011;16488;52.396;10.696;2023-02-18T09:08:23;47.35;;;18.83;;
29550;SDS011;16488;52.396;10.696;2023-02-18T09:10:49;49.97;;;18.50;;
29550;SDS011;16488;52.396;10.696;2023-02-18T09:13:19;47.83;;;17.48;;
29550;SDS011;16488;52.396;10.696;2023-02-18T09:15:45;53.20;;;19.45;;
29550;SDS011;16488;52.396;10.696;2023-02-18T09:18:11;46.22;;;18.33;;
29550;SDS011;16488;52.396;10.696;2023-02-18T09:20:38;44.95;;;17.35;;
29550;SDS011;16488;52.396;10.696;2023-02-18T09:23:04;41.75;;;14.93;;
29550;SDS011;16488;52.396;10.696;2023-02-18T09:25:30;38.28;;;14.27;;
29550;SDS011;16488;52.396;10.696;2023-02-18T09:27:56;23.73;;;9.98;;
29550;SDS011;16488;52.396;10.696;2023-02-18T09:30:22;20.88;;;7.55;;
29550;SDS011;16488;52.396;10.696;2023-02-18T09:32:48;16.40;;;8.02;;
29550;SDS011;16488;52.396;10.696;2023-02-18T09:35:14;12.50;;;6.25;;
29550;SDS011;16488;52.396;10.696;2023-02-18T09:37:41;10.35;;;5.03;;
29550;SDS011;16488;52.396;10.696;2023-02-18T09:40:07;10.93;;;4.93;;
29550;SDS011;16488;52.396;10.696;2023-02-18T09:42:36;12.48;;;4.63;;
29550;SDS011;16488;52.396;10.696;2023-02-18T09:45:05;5.30;;;2.92;;
29550;SDS011;16488;52.396;10.696;2023-02-18T09:47:36;5.32;;;2.70;;
29550;SDS011;16488;52.396;10.696;2023-02-18T09:50:05;5.30;;;2.20;;
29550;SDS011;16488;52.396;10.696;2023-02-18T09:52:33;2.90;;;1.90;;
29550;SDS011;16488;52.396;10.696;2023-02-18T09:55:12;2.75;;;1.83;;
29550;SDS011;16488;52.396;10.696;2023-02-18T09:57:41;2.13;;;1.40;;
29550;SDS011;16488;52.396;10.696;2023-02-18T10:00:12;1.60;;;1.30;;
29550;SDS011;16488;52.396;10.696;2023-02-18T10:02:40;2.55;;;1.40;;
29550;SDS011;16488;52.396;10.696;2023-02-18T10:05:08;2.35;;;1.42;;
29550;SDS011;16488;52.396;10.696;2023-02-18T10:07:37;1.40;;;1.30;;
29550;SDS011;16488;52.396;10.696;2023-02-18T10:10:15;2.08;;;1.73;;
29550;SDS011;16488;52.396;10.696;2023-02-18T10:12:43;2.22;;;1.73;;
29550;SDS011;16488;52.396;10.696;2023-02-18T10:15:16;1.98;;;1.50;;
29550;SDS011;16488;52.396;10.696;2023-02-18T10:17:43;3.22;;;1.83;;
29550;SDS011;16488;52.396;10.696;2023-02-18T10:20:09;3.15;;;2.00;;
29550;SDS011;16488;52.396;10.696;2023-02-18T10:22:37;1.45;;;1.33;;
29550;SDS011;16488;52.396;10.696;2023-02-18T10:25:03;2.10;;;1.73;;
29550;SDS011;16488;52.396;10.696;2023-02-18T10:27:32;2.20;;;1.50;;
29550;SDS011;16488;52.396;10.696;2023-02-18T10:29:59;5.20;;;1.75;;
29550;SDS011;16488;52.396;10.696;2023-02-18T10:32:30;2.83;;;1.65;;
29550;SDS011;16488;52.396;10.696;2023-02-18T10:40:06;1.60;;;1.42;;
29550;SDS011;16488;52.396;10.696;2023-02-18T10:42:50;3.00;;;2.15;;
29550;SDS011;16488;52.396;10.696;2023-02-18T10:45:26;1.98;;;1.30;;
29550;SDS011;16488;52.396;10.696;2023-02-18T10:48:04;2.25;;;1.50;;
29550;SDS011;16488;52.396;10.696;2023-02-18T10:50:34;2.35;;;1.70;;
29550;SDS011;16488;52.396;10.696;2023-02-18T10:53:01;1.83;;;1.30;;
29550;SDS011;16488;52.396;10.696;2023-02-18T10:55:43;2.40;;;1.38;;
29550;SDS011;16488;52.396;10.696;2023-02-18T11:00:48;3.15;;;2.30;;
29550;SDS011;16488;52.396;10.696;2023-02-18T11:03:37;3.47;;;2.40;;
29550;SDS011;16488;52.396;10.696;2023-02-18T11:06:05;3.33;;;1.90;;
29550;SDS011;16488;52.396;10.696;2023-02-18T11:08:41;3.67;;;2.53;;
29550;SDS011;16488;52.396;10.696;2023-02-18T11:11:19;3.83;;;2.58;;
29550;SDS011;16488;52.396;10.696;2023-02-18T11:13:51;5.88;;;3.47;;
29550;SDS011;16488;52.396;10.696;2023-02-18T11:16:17;6.72;;;2.75;;
29550;SDS011;16488;52.396;10.696;2023-02-18T11:18:45;5.35;;;3.25;;
29550;SDS011;16488;52.396;10.696;2023-02-18T11:23:48;4.75;;;3.60;;
29550;SDS011;16488;52.396;10.696;2023-02-18T11:26:14;5.47;;;3.45;;
29550;SDS011;16488;52.396;10.696;2023-02-18T11:28:43;5.00;;;3.75;;
29550;SDS011;16488;52.396;10.696;2023-02-18T11:31:14;5.40;;;3.38;;
29550;SDS011;16488;52.396;10.696;2023-02-18T11:33:47;5.57;;;3.20;;
29550;SDS011;16488;52.396;10.696;2023-02-18T11:36:22;7.05;;;3.65;;
29550;SDS011;16488;52.396;10.696;2023-02-18T11:38:56;4.90;;;3.22;;
29550;SDS011;16488;52.396;10.696;2023-02-18T11:41:30;4.53;;;2.40;;
29550;SDS011;16488;52.396;10.696;2023-02-18T11:43:56;5.07;;;2.78;;
29550;SDS011;16488;52.396;10.696;2023-02-18T11:46:24;5.57;;;2.95;;
29550;SDS011;16488;52.396;10.696;2023-02-18T11:48:51;4.28;;;3.17;;
29550;SDS011;16488;52.396;10.696;2023-02-18T11:51:19;4.13;;;2.95;;
29550;SDS011;16488;52.396;10.696;2023-02-18T11:56:23;4.28;;;2.80;;
29550;SDS011;16488;52.396;10.696;2023-02-18T11:58:49;3.15;;;2.28;;
29550;SDS011;16488;52.396;10.696;2023-02-18T12:01:31;3.42;;;2.72;;
29550;SDS011;16488;52.396;10.696;2023-02-18T12:04:17;2.50;;;2.08;;
29550;SDS011;16488;52.396;10.696;2023-02-18T12:06:51;4.03;;;3.00;;
29550;SDS011;16488;52.396;10.696;2023-02-18T12:12:00;6.07;;;3.50;;
29550;SDS011;16488;52.396;10.696;2023-02-18T12:14:26;7.72;;;3.70;;
29550;SDS011;16488;52.396;10.696;2023-02-18T12:22:20;5.35;;;4.32;;
29550;SDS011;16488;52.396;10.696;2023-02-18T12:30:04;3.65;;;2.83;;
29550;SDS011;16488;52.396;10.696;2023-02-18T12:38:04;7.40;;;4.75;;
29550;SDS011;16488;52.396;10.696;2023-02-18T12:43:26;6.70;;;3.33;;
29550;SDS011;16488;52.396;10.696;2023-02-18T12:46:04;4.25;;;3.40;;
29550;SDS011;16488;52.396;10.696;2023-02-18T12:51:24;4.43;;;3.30;;
29550;SDS011;16488;52.396;10.696;2023-02-18T13:04:35;2.22;;;2.03;;
29550;SDS011;16488;52.396;10.696;2023-02-18T13:07:17;2.22;;;1.80;;
29550;SDS011;16488;52.396;10.696;2023-02-18T13:17:13;1.48;;;1.33;;
29550;SDS011;16488;52.396;10.696;2023-02-18T13:22:07;2.28;;;1.70;;
29550;SDS011;16488;52.396;10.696;2023-02-18T13:24:38;1.90;;;1.70;;
29550;SDS011;16488;52.396;10.696;2023-02-18T13:29:32;4.70;;;1.48;;
29550;SDS011;16488;52.396;10.696;2023-02-18T13:32:05;2.55;;;1.50;;
29550;SDS011;16488;52.396;10.696;2023-02-18T13:39:49;2.47;;;1.95;;
29550;SDS011;16488;52.396;10.696;2023-02-18T13:52:57;3.50;;;2.40;;
29550;SDS011;16488;52.396;10.696;2023-02-18T13:55:26;3.78;;;2.65;;
29550;SDS011;16488;52.396;10.696;2023-02-18T13:57:57;9.30;;;2.88;;
29550;SDS011;16488;52.396;10.696;2023-02-18T14:00:33;5.55;;;3.30;;
29550;SDS011;16488;52.396;10.696;2023-02-18T14:03:01;4.85;;;3.58;;
29550;SDS011;16488;52.396;10.696;2023-02-18T14:05:38;5.47;;;2.63;;
29550;SDS011;16488;52.396;10.696;2023-02-18T14:10:31;4.45;;;3.17;;
29550;SDS011;16488;52.396;10.696;2023-02-18T14:23:10;8.85;;;3.60;;
29550;SDS011;16488;52.396;10.696;2023-02-18T14:25:38;3.55;;;2.75;;
29550;SDS011;16488;52.396;10.696;2023-02-18T14:30:49;5.80;;;3.80;;
29550;SDS011;16488;52.396;10.696;2023-02-18T14:33:16;5.80;;;3.65;;
29550;SDS011;16488;52.396;10.696;2023-02-18T14:35:52;6.30;;;3.47;;
29550;SDS011;16488;52.396;10.696;2023-02-18T14:40:57;5.32;;;3.45;;
29550;SDS011;16488;52.396;10.696;2023-02-18T14:51:22;3.60;;;3.10;;
29550;SDS011;16488;52.396;10.696;2023-02-18T14:53:48;9.23;;;4.18;;
29550;SDS011;16488;52.396;10.696;2023-02-18T14:56:15;4.82;;;3.08;;
29550;SDS011;16488;52.396;10.696;2023-02-18T14:58:47;6.38;;;2.95;;
29550;SDS011;16488;52.396;10.696;2023-02-18T15:03:43;6.75;;;3.30;;
29550;SDS011;16488;52.396;10.696;2023-02-18T15:06:29;9.30;;;4.22;;
29550;SDS011;16488;52.396;10.696;2023-02-18T15:08:55;6.38;;;3.55;;
29550;SDS011;16488;52.396;10.696;2023-02-18T15:11:23;6.03;;;3.00;;
29550;SDS011;16488;52.396;10.696;2023-02-18T15:13:50;6.47;;;3.22;;
29550;SDS011;16488;52.396;10.696;2023-02-18T15:16:23;5.57;;;2.78;;
29550;SDS011;16488;52.396;10.696;2023-02-18T15:18:55;6.85;;;3.05;;
29550;SDS011;16488;52.396;10.696;2023-02-18T15:21:29;5.97;;;3.15;;
29550;SDS011;16488;52.396;10.696;2023-02-18T15:23:57;6.07;;;3.35;;
29550;SDS011;16488;52.396;10.696;2023-02-18T15:26:26;5.50;;;3.88;;
29550;SDS011;16488;52.396;10.696;2023-02-18T15:28:54;8.38;;;3.67;;
29550;SDS011;16488;52.396;10.696;2023-02-18T15:31:26;6.18;;;3.70;;
29550;SDS011;16488;52.396;10.696;2023-02-18T15:33:53;9.25;;;3.90;;
29550;SDS011;16488;52.396;10.696;2023-02-18T15:36:20;7.25;;;3.75;;
29550;SDS011;16488;52.396;10.696;2023-02-18T15:38:46;10.75;;;4.10;;
29550;SDS011;16488;52.396;10.696;2023-02-18T15:41:15;8.73;;;4.10;;
29550;SDS011;16488;52.396;10.696;2023-02-18T15:43:54;7.55;;;4.07;;
29550;SDS011;16488;52.396;10.696;2023-02-18T15:46:22;7.90;;;3.65;;
29550;SDS011;16488;52.396;10.696;2023-02-18T15:48:50;10.55;;;4.55;;
29550;SDS011;16488;52.396;10.696;2023-02-18T15:51:18;15.07;;;4.72;;
29550;SDS011;16488;52.396;10.696;2023-02-18T15:53:46;10.45;;;5.53;;
29550;SDS011;16488;52.396;10.696;2023-02-18T15:56:15;8.23;;;4.15;;
29550;SDS011;16488;52.396;10.696;2023-02-18T15:58:42;7.95;;;3.83;;
29550;SDS011;16488;52.396;10.696;2023-02-18T16:01:25;10.35;;;4.65;;
29550;SDS011;16488;52.396;10.696;2023-02-18T16:03:52;6.90;;;4.00;;
29550;SDS011;16488;52.396;10.696;2023-02-18T16:06:26;15.23;;;4.72;;
29550;SDS011;16488;52.396;10.696;2023-02-18T16:11:25;12.27;;;4.28;;
29550;SDS011;16488;52.396;10.696;2023-02-18T16:13:52;7.03;;;4.25;;
29550;SDS011;16488;52.396;10.696;2023-02-18T16:16:19;9.50;;;4.43;;
29550;SDS011;16488;52.396;10.696;2023-02-18T16:18:48;9.50;;;4.72;;
29550;SDS011;16488;52.396;10.696;2023-02-18T16:23:45;13.93;;;4.20;;
29550;SDS011;16488;52.396;10.696;2023-02-18T16:29:12;12.55;;;4.68;;
29550;SDS011;16488;52.396;10.696;2023-02-18T16:31:39;19.45;;;4.60;;
29550;SDS011;16488;52.396;10.696;2023-02-18T16:34:05;11.07;;;4.65;;
29550;SDS011;16488;52.396;10.696;2023-02-18T16:36:31;14.88;;;5.40;;
29550;SDS011;16488;52.396;10.696;2023-02-18T16:41:26;7.80;;;4.22;;
29550;SDS011;16488;52.396;10.696;2023-02-18T16:46:18;13.85;;;4.30;;
29550;SDS011;16488;52.396;10.696;2023-02-18T16:48:48;21.15;;;7.30;;
29550;SDS011;16488;52.396;10.696;2023-02-18T16:51:20;7.22;;;4.20;;
29550;SDS011;16488;52.396;10.696;2023-02-18T16:53:46;12.38;;;6.55;;
29550;SDS011;16488;52.396;10.696;2023-02-18T16:56:14;21.00;;;7.93;;
29550;SDS011;16488;52.396;10.696;2023-02-18T16:58:40;16.73;;;5.35;;
29550;SDS011;16488;52.396;10.696;2023-02-18T17:01:07;13.20;;;5.20;;
29550;SDS011;16488;52.396;10.696;2023-02-18T17:03:39;10.23;;;4.72;;
29550;SDS011;16488;52.396;10.696;2023-02-18T17:06:05;12.65;;;4.72;;
29550;SDS011;16488;52.396;10.696;2023-02-18T17:08:31;14.90;;;5.50;;
29550;SDS011;16488;52.396;10.696;2023-02-18T17:11:00;11.23;;;4.88;;
29550;SDS011;16488;52.396;10.696;2023-02-18T17:13:27;23.38;;;5.32;;
29550;SDS011;16488;52.396;10.696;2023-02-18T17:15:55;10.93;;;5.20;;
29550;SDS011;16488;52.396;10.696;2023-02-18T17:18:22;15.55;;;6.55;;
29550;SDS011;16488;52.396;10.696;2023-02-18T17:23:14;18.48;;;7.43;;
29550;SDS011;16488;52.396;10.696;2023-02-18T17:25:41;15.13;;;6.05;;
29550;SDS011;16488;52.396;10.696;2023-02-18T17:28:07;14.45;;;6.50;;
29550;SDS011;16488;52.396;10.696;2023-02-18T17:30:34;12.15;;;6.38;;
29550;SDS011;16488;52.396;10.696;2023-02-18T17:33:01;25.33;;;8.75;;
29550;SDS011;16488;52.396;10.696;2023-02-18T17:35:27;16.63;;;6.47;;
29550;SDS011;16488;52.396;10.696;2023-02-18T17:37:53;21.73;;;6.82;;
29550;SDS011;16488;52.396;10.696;2023-02-18T17:40:21;23.85;;;5.75;;
29550;SDS011;16488;52.396;10.696;2023-02-18T17:42:47;19.73;;;8.30;;
29550;SDS011;16488;52.396;10.696;2023-02-18T17:45:18;13.57;;;5.80;;